»·PEaware :: DCM89 KPSP-KSAN

DCM89 :: KPSP-KSAN

FLIGHT INFORMATION

Flight Status: Arrived
Operator:
DotCom
More flights by this operator :: More flights under this callsign
Pilot: Josh T. (20631)
Aircraft: DASSAULT AVIATION FALCON 50
(FA50)
More flights by this aircraft type
Origin: KPSP Palm Springs Intl
United States
Destination: KSAN San Diego Intl-Lindbergh
United States
More flights between these airports :: More routes between these airports
Route: CATH1 PSP TRM V514 MZB
File this flight plan on PilotEdge
Remarks:
Altitude:
(Current/Filed)
12,000ft
Speed:
(Current/Filed)
400kts
Departed: 09-Jan-21 01:10 PM
Arrived: 09-Jan-21 01:34 PM
Distance/Time
Traveled:
74nm/0:23
Distance/Time
To Go:
Arrived

Flight Plot

Page will automatically refresh every two minutes.


Map Options




Map Legend


Flown Route
Filed Route
Departure Airport
Arrival Airport
Navaid (VOR, NDB)
Fix

Horizontal Profiles

Position Reports

Time Latitude Longitude Heading Altitude Ground
Speed
09-Jan-21 12:43 33.825680 -116.509325 270 480ft 0kts
09-Jan-21 12:44 33.825680 -116.509325 270 480ft 0kts
09-Jan-21 12:45 33.825680 -116.509325 270 480ft 0kts
09-Jan-21 12:46 33.825680 -116.509325 270 480ft 0kts
09-Jan-21 12:47 33.825680 -116.509325 270 480ft 0kts
09-Jan-21 12:48 33.825680 -116.509325 270 480ft 0kts
09-Jan-21 12:49 33.825680 -116.509325 270 480ft 0kts
09-Jan-21 12:50 33.825680 -116.509325 270 480ft 0kts
09-Jan-21 12:51 33.825680 -116.509325 270 480ft 0kts
09-Jan-21 12:52 33.825680 -116.509325 270 480ft 0kts
09-Jan-21 12:53 33.825680 -116.509325 270 480ft 0kts
09-Jan-21 12:54 33.825680 -116.509325 270 480ft 0kts
09-Jan-21 12:55 33.825680 -116.509325 270 480ft 0kts
09-Jan-21 12:56 33.825680 -116.509325 270 480ft 0kts
09-Jan-21 12:57 33.825680 -116.509325 270 480ft 0kts
09-Jan-21 12:58 33.825680 -116.509325 270 480ft 0kts
09-Jan-21 12:59 33.825680 -116.509325 270 480ft 0kts
09-Jan-21 13:00 33.825680 -116.509326 270 480ft 0kts
09-Jan-21 13:01 33.825680 -116.509330 270 480ft 0kts
09-Jan-21 13:02 33.825680 -116.509344 270 480ft 0kts
09-Jan-21 13:03 33.825680 -116.509355 270 480ft 0kts
09-Jan-21 13:04 33.825384 -116.508934 84 480ft 4kts
09-Jan-21 13:05 33.825313 -116.506593 91 480ft 9kts
09-Jan-21 13:06 33.823891 -116.504573 143 480ft 11kts
09-Jan-21 13:07 33.820727 -116.501753 143 480ft 16kts
09-Jan-21 13:08 33.818520 -116.498628 79 480ft 8kts
09-Jan-21 13:09 33.824647 -116.503191 323 481ft 115kts
09-Jan-21 13:10 33.860917 -116.536720 321 2812ft 208kts
09-Jan-21 13:11 33.918555 -116.556556 5 6592ft 243kts
09-Jan-21 13:12 33.934713 -116.488267 130 10382ft 294kts
09-Jan-21 13:13 33.867606 -116.420200 123 11975ft 352kts
09-Jan-21 13:14 33.812147 -116.308871 137 11972ft 421kts
09-Jan-21 13:15 33.714713 -116.230013 146 11934ft 424kts
09-Jan-21 13:16 33.603012 -116.201385 194 11922ft 415kts
09-Jan-21 13:17 33.506540 -116.268889 219 11937ft 402kts
09-Jan-21 13:18 33.415559 -116.346721 220 11954ft 402kts
09-Jan-21 13:19 33.325087 -116.425584 220 11954ft 402kts
09-Jan-21 13:20 33.234613 -116.504320 221 11956ft 400kts
09-Jan-21 13:21 33.143365 -116.577795 208 11939ft 394kts
09-Jan-21 13:22 33.034047 -116.595792 189 11947ft 396kts
09-Jan-21 13:23 32.920395 -116.608831 186 10553ft 421kts
09-Jan-21 13:24 32.820522 -116.659362 242 9146ft 342kts
09-Jan-21 13:25 32.774954 -116.736248 240 7367ft 293kts
09-Jan-21 13:26 32.727877 -116.814155 236 5968ft 285kts
09-Jan-21 13:27 32.685918 -116.888920 248 4882ft 255kts
09-Jan-21 13:28 32.679252 -116.965762 289 3764ft 229kts
09-Jan-21 13:29 32.696352 -117.036554 288 2797ft 213kts
09-Jan-21 13:30 32.709381 -117.089942 288 1817ft 134kts
09-Jan-21 13:31 32.719432 -117.131500 285 1075ft 131kts
09-Jan-21 13:32 32.729127 -117.171476 285 238ft 123kts
09-Jan-21 13:33 32.734463 -117.194119 259 18ft 11kts
09-Jan-21 13:34 32.733847 -117.194877 151 18ft 0kts
09-Jan-21 13:35 32.733412 -117.193336 106 18ft 12kts
09-Jan-21 13:36 32.734230 -117.191073 29 18ft 10kts
09-Jan-21 13:37 32.734190 -117.187568 106 18ft 16kts
09-Jan-21 13:38 32.732528 -117.180701 106 18ft 20kts
09-Jan-21 13:39 32.733983 -117.179626 26 18ft 4kts
09-Jan-21 13:40 32.733999 -117.179445 107 18ft 0kts
09-Jan-21 13:41 32.733999 -117.179445 107 18ft 0kts
09-Jan-21 13:42 32.733999 -117.179445 107 18ft 0kts
09-Jan-21 13:43 32.733999 -117.179445 107 18ft 0kts

Navigation Log

Ident Type
Flight plan parsing failed, navigation log unavailable